createdAt,value
2018-09-10T00:01:37.244Z,59.30
2018-09-10T00:04:04.728Z,59.20
2018-09-10T00:06:32.205Z,59.30
2018-09-10T00:08:59.678Z,59.50
2018-09-10T00:11:27.149Z,59.60
2018-09-10T00:13:54.631Z,59.60
2018-09-10T00:16:22.159Z,59.90
2018-09-10T00:18:49.690Z,60.00
2018-09-10T00:21:17.246Z,59.80
2018-09-10T00:23:44.782Z,59.80
2018-09-10T00:26:12.362Z,59.90
2018-09-10T00:28:39.846Z,60.10
2018-09-10T00:31:07.470Z,60.40
2018-09-10T00:33:34.967Z,60.40
2018-09-10T00:36:02.430Z,60.70
2018-09-10T00:38:29.903Z,60.70
2018-09-10T00:40:57.415Z,60.70
2018-09-10T00:43:24.914Z,60.60
2018-09-10T00:45:52.474Z,60.60
2018-09-10T00:48:19.943Z,60.40
2018-09-10T00:50:47.380Z,60.60
2018-09-10T00:53:14.913Z,60.10
2018-09-10T00:55:42.431Z,59.80
2018-09-10T00:58:09.959Z,60.00
2018-09-10T01:00:37.463Z,60.00
2018-09-10T01:03:04.935Z,60.10
2018-09-10T01:05:32.423Z,59.80
2018-09-10T01:07:59.926Z,59.50
2018-09-10T01:10:27.357Z,59.70
2018-09-10T01:12:54.794Z,59.70
2018-09-10T01:15:22.269Z,59.60
2018-09-10T01:17:49.768Z,59.80
2018-09-10T01:20:17.279Z,59.90
2018-09-10T01:22:44.727Z,59.80
2018-09-10T01:25:12.286Z,60.10
2018-09-10T01:27:39.811Z,60.30
2018-09-10T01:30:07.387Z,60.60
2018-09-10T01:32:34.798Z,60.70
2018-09-10T01:35:04.406Z,61.10
2018-09-10T01:37:32.826Z,61.40
2018-09-10T01:40:00.657Z,61.60
2018-09-10T01:42:28.313Z,61.60
2018-09-10T01:44:55.765Z,61.60
2018-09-10T01:47:24.931Z,61.10
2018-09-10T01:49:52.482Z,60.80
2018-09-10T01:52:20.573Z,60.30
2018-09-10T01:54:49.442Z,60.30
2018-09-10T01:57:17.822Z,60.70
2018-09-10T01:59:45.302Z,60.90
2018-09-10T02:02:12.875Z,61.00
2018-09-10T02:04:41.031Z,61.20
2018-09-10T02:07:08.616Z,61.30
2018-09-10T02:09:36.070Z,61.30
2018-09-10T02:12:03.537Z,61.20
2018-09-10T02:14:31.009Z,61.20
2018-09-10T02:16:58.574Z,61.00
2018-09-10T02:19:26.014Z,60.60
2018-09-10T02:21:53.459Z,60.40
2018-09-10T02:24:21.109Z,60.80
2018-09-10T02:26:48.610Z,61.10
2018-09-10T02:29:16.153Z,61.20
2018-09-10T02:31:43.510Z,61.20
2018-09-10T02:34:10.990Z,61.00
2018-09-10T02:36:39.094Z,60.50
2018-09-10T02:39:07.055Z,60.20
2018-09-10T02:41:40.458Z,60.50
2018-09-10T02:44:07.918Z,61.50
2018-09-10T02:46:35.333Z,60.50
2018-09-10T02:49:03.082Z,60.70
2018-09-10T02:51:30.523Z,60.90
2018-09-10T02:53:58.147Z,60.80
2018-09-10T02:56:25.850Z,61.70
2018-09-10T02:58:53.381Z,61.20
2018-09-10T03:01:21.683Z,60.70
2018-09-10T03:03:50.143Z,60.90
2018-09-10T03:06:17.871Z,61.00
2018-09-10T03:08:45.354Z,61.20
2018-09-10T03:11:12.947Z,61.40
2018-09-10T03:13:40.404Z,61.60
2018-09-10T03:16:08.021Z,61.30
2018-09-10T03:18:35.577Z,60.90
2018-09-10T03:21:03.111Z,60.60
2018-09-10T03:23:30.663Z,60.80
2018-09-10T03:25:58.079Z,61.10
2018-09-10T03:28:25.657Z,61.70
2018-09-10T03:30:53.190Z,61.80
2018-09-10T03:33:21.003Z,61.70
2018-09-10T03:35:48.518Z,61.80
2018-09-10T03:38:16.222Z,62.30
2018-09-10T03:40:43.710Z,61.90
2018-09-10T03:43:11.237Z,61.20
2018-09-10T03:45:38.700Z,61.30
2018-09-10T03:48:06.268Z,61.50
2018-09-10T03:50:33.792Z,61.70
2018-09-10T03:53:01.353Z,61.80
2018-09-10T03:55:28.937Z,62.00
2018-09-10T03:57:56.386Z,61.80
2018-09-10T04:00:23.857Z,62.00
2018-09-10T04:02:51.304Z,62.20
2018-09-10T04:05:18.875Z,62.30
2018-09-10T04:07:46.338Z,62.50
2018-09-10T04:10:13.766Z,62.50
2018-09-10T04:12:41.280Z,62.20
2018-09-10T04:15:08.743Z,62.30
2018-09-10T04:17:36.277Z,62.40
2018-09-10T04:20:08.185Z,62.60
2018-09-10T04:22:35.926Z,62.70
2018-09-10T04:25:03.649Z,62.80
2018-09-10T04:27:31.532Z,63.00
2018-09-10T04:29:59.090Z,63.10
2018-09-10T04:32:26.623Z,63.80
2018-09-10T04:34:54.190Z,63.30
2018-09-10T04:37:22.035Z,63.20
2018-09-10T04:39:49.922Z,62.70
2018-09-10T04:42:17.532Z,62.20
2018-09-10T04:44:45.319Z,62.10
2018-09-10T04:47:14.733Z,62.00
2018-09-10T04:49:42.251Z,61.90
2018-09-10T04:52:09.767Z,61.80
2018-09-10T04:54:37.312Z,61.70
2018-09-10T04:57:04.802Z,61.60
2018-09-10T04:59:32.285Z,61.60
2018-09-10T05:01:59.780Z,61.90
2018-09-10T05:04:27.409Z,61.80
2018-09-10T05:06:54.818Z,61.90
2018-09-10T05:09:22.399Z,62.30
2018-09-10T05:11:50.160Z,62.80
2018-09-10T05:14:17.849Z,62.70
2018-09-10T05:16:45.337Z,63.00
2018-09-10T05:19:12.935Z,62.80
2018-09-10T05:21:40.450Z,62.90
2018-09-10T05:24:07.990Z,63.10
2018-09-10T05:26:35.436Z,62.90
2018-09-10T05:29:02.986Z,62.70
2018-09-10T05:31:30.513Z,62.30
2018-09-10T05:33:58.004Z,62.40
2018-09-10T05:36:25.572Z,62.40
2018-09-10T05:38:53.137Z,62.30
2018-09-10T05:41:20.637Z,63.30
2018-09-10T05:43:48.141Z,62.80
2018-09-10T05:46:15.816Z,62.50
2018-09-10T05:48:43.354Z,62.30
2018-09-10T05:51:10.818Z,61.90
2018-09-10T05:53:38.276Z,62.00
2018-09-10T05:56:05.718Z,62.30
2018-09-10T05:58:33.357Z,62.10
2018-09-10T06:01:00.915Z,62.60
2018-09-10T06:03:28.579Z,62.70
2018-09-10T06:05:56.105Z,62.60
2018-09-10T06:08:23.606Z,62.60
2018-09-10T06:10:51.089Z,62.50
2018-09-10T06:13:18.587Z,62.60
2018-09-10T06:15:46.088Z,62.30
2018-09-10T06:18:13.600Z,62.50
2018-09-10T06:20:41.088Z,62.70
2018-09-10T06:23:08.568Z,62.90
2018-09-10T06:25:36.706Z,62.80
2018-09-10T06:28:04.301Z,63.00
2018-09-10T06:30:32.214Z,63.30
2018-09-10T06:32:59.852Z,62.80
2018-09-10T06:35:27.286Z,63.10
2018-09-10T06:37:54.781Z,62.70
2018-09-10T06:40:22.340Z,63.00
2018-09-10T06:42:49.750Z,62.60
2018-09-10T06:45:17.253Z,62.90
2018-09-10T06:47:44.824Z,62.70
2018-09-10T06:50:12.331Z,63.20
2018-09-10T06:52:39.803Z,63.30
2018-09-10T06:55:07.290Z,62.20
2018-09-10T06:57:35.180Z,62.80
2018-09-10T07:00:02.739Z,62.70
2018-09-10T07:02:30.286Z,63.90
2018-09-10T07:04:57.757Z,63.40
2018-09-10T07:07:25.317Z,63.40
2018-09-10T07:09:52.791Z,62.90
2018-09-10T07:12:20.260Z,62.10
2018-09-10T07:14:47.807Z,62.80
2018-09-10T07:17:15.289Z,61.40
2018-09-10T07:19:42.857Z,62.50
2018-09-10T07:22:10.462Z,62.00
2018-09-10T07:24:38.023Z,62.70
2018-09-10T07:27:08.926Z,62.80
2018-09-10T07:29:37.959Z,60.90
2018-09-10T07:32:06.871Z,62.40
2018-09-10T07:34:36.123Z,62.50
2018-09-10T07:37:04.623Z,61.90
2018-09-10T07:39:35.169Z,61.70
2018-09-10T07:42:04.398Z,62.60
2018-09-10T07:44:34.476Z,62.60
2018-09-10T07:47:02.835Z,61.80
2018-09-10T07:49:37.100Z,61.50
2018-09-10T07:52:06.512Z,61.50
2018-09-10T07:54:35.900Z,61.20
2018-09-10T07:57:05.153Z,61.30
2018-09-10T07:59:34.379Z,60.20
2018-09-10T08:02:03.575Z,60.90
2018-09-10T08:04:32.435Z,61.00
2018-09-10T08:07:05.875Z,60.80
2018-09-10T08:09:42.452Z,60.70
2018-09-10T08:12:11.630Z,60.10
2018-09-10T08:14:41.322Z,60.30
2018-09-10T08:17:19.315Z,60.70
2018-09-10T08:19:48.415Z,60.40
2018-09-10T08:22:21.453Z,60.50
2018-09-10T08:24:56.546Z,60.30
2018-09-10T08:27:26.986Z,59.00
2018-09-10T08:29:57.764Z,59.10
2018-09-10T08:32:26.772Z,59.50
2018-09-10T08:34:55.706Z,59.80
2018-09-10T08:37:24.947Z,58.90
2018-09-10T08:39:59.229Z,59.20
2018-09-10T08:42:28.644Z,59.10
2018-09-10T08:44:58.185Z,59.10
2018-09-10T08:47:28.497Z,59.00
2018-09-10T08:50:03.181Z,58.90
2018-09-10T08:52:31.426Z,58.30
2018-09-10T08:57:50.543Z,58.00
2018-09-10T09:00:19.603Z,58.20
2018-09-10T09:03:09.033Z,58.10
2018-09-10T09:08:59.566Z,57.80
2018-09-10T09:11:30.586Z,58.20
2018-09-10T09:14:14.611Z,58.10
2018-09-10T09:16:45.596Z,58.10
2018-09-10T09:19:26.502Z,57.60
2018-09-10T09:21:55.121Z,56.90
2018-09-10T09:24:26.373Z,56.40
2018-09-10T09:26:54.378Z,56.40
2018-09-10T09:29:42.341Z,55.90
2018-09-10T09:32:26.310Z,56.70
2018-09-10T09:35:07.215Z,56.40
2018-09-10T09:38:03.087Z,55.60
2018-09-10T09:46:27.390Z,55.50
2018-09-10T09:58:01.287Z,54.90
2018-09-10T10:00:42.533Z,54.40
2018-09-10T10:06:10.604Z,54.50
2018-09-10T10:08:46.705Z,54.10
2018-09-10T10:11:24.191Z,54.70
2018-09-10T10:13:58.716Z,54.40
2018-09-10T10:16:29.042Z,54.10
2018-09-10T10:19:01.942Z,53.90
2018-09-10T10:21:35.664Z,54.20
2018-09-10T10:24:10.939Z,54.40
2018-09-10T10:26:42.066Z,54.80
2018-09-10T10:29:22.301Z,54.00
2018-09-10T10:31:56.506Z,53.60
2018-09-10T10:34:29.158Z,53.60
2018-09-10T10:36:59.594Z,53.50
2018-09-10T10:39:28.021Z,53.70
2018-09-10T10:44:36.323Z,54.20
2018-09-10T10:47:06.606Z,54.00
2018-09-10T10:49:36.243Z,53.80
2018-09-10T10:52:06.077Z,53.40
2018-09-10T10:54:34.915Z,53.60
2018-09-10T10:57:04.447Z,53.80
2018-09-10T10:59:37.669Z,53.40
2018-09-10T11:02:06.812Z,53.30
2018-09-10T11:04:35.175Z,52.90
2018-09-10T11:07:11.345Z,52.90
2018-09-10T11:09:41.072Z,52.90
2018-09-10T11:12:09.955Z,52.60
2018-09-10T11:14:38.626Z,52.50
2018-09-10T11:17:11.258Z,52.80
2018-09-10T11:19:44.390Z,52.60
2018-09-10T11:22:13.774Z,52.60
2018-09-10T11:24:47.188Z,52.90
2018-09-10T11:27:16.514Z,52.40
2018-09-10T11:29:45.677Z,51.80
2018-09-10T11:32:17.102Z,51.10
2018-09-10T11:34:49.566Z,50.60
2018-09-10T11:37:18.471Z,50.40
2018-09-10T11:39:47.475Z,50.40
2018-09-10T11:42:23.059Z,50.20
2018-09-10T11:44:50.790Z,50.40
2018-09-10T11:47:20.310Z,49.80
2018-09-10T11:49:51.727Z,49.20
2018-09-10T11:52:20.089Z,49.00
2018-09-10T11:54:50.403Z,48.90
2018-09-10T11:57:18.991Z,48.60
2018-09-10T11:59:47.691Z,48.60
2018-09-10T12:02:24.733Z,49.10
2018-09-10T12:04:54.017Z,48.70
2018-09-10T12:07:26.439Z,48.20
2018-09-10T12:09:56.607Z,48.40
2018-09-10T12:12:24.301Z,48.00
2018-09-10T12:14:57.654Z,47.60
2018-09-10T12:17:27.259Z,47.60
2018-09-10T12:19:55.589Z,47.80
2018-09-10T12:22:25.426Z,47.30
2018-09-10T12:24:54.009Z,46.90
2018-09-10T12:27:21.768Z,46.70
2018-09-10T12:29:50.262Z,47.00
2018-09-10T12:32:18.970Z,46.10
2018-09-10T12:34:47.307Z,46.40
2018-09-10T12:37:17.444Z,45.70
2018-09-10T12:39:49.496Z,45.20
2018-09-10T12:42:19.741Z,44.80
2018-09-10T12:44:49.516Z,44.20
2018-09-10T12:47:17.619Z,44.30
2018-09-10T12:49:53.880Z,44.50
2018-09-10T12:52:25.760Z,44.70
2018-09-10T12:54:54.481Z,44.60
2018-09-10T12:57:24.734Z,44.60
2018-09-10T12:59:54.945Z,45.00
2018-09-10T13:02:23.583Z,44.50
2018-09-10T13:04:51.248Z,43.10
2018-09-10T13:09:59.668Z,41.80
2018-09-10T13:12:30.111Z,42.50
2018-09-10T13:15:08.838Z,41.40
2018-09-10T13:17:45.100Z,41.40
2018-09-10T13:20:15.296Z,40.90
2018-09-10T13:22:51.855Z,41.00
2018-09-10T13:25:21.981Z,41.20
2018-09-10T13:27:51.508Z,40.90
2018-09-10T13:30:34.895Z,40.90
2018-09-10T13:33:07.615Z,41.70
2018-09-10T13:35:36.900Z,41.80
2018-09-10T13:38:07.086Z,41.20
2018-09-10T13:40:34.843Z,41.70
2018-09-10T13:43:03.909Z,42.50
2018-09-10T13:45:35.605Z,42.80
2018-09-10T13:48:03.725Z,42.30
2018-09-10T13:50:32.952Z,42.70
2018-09-10T13:53:06.938Z,42.20
2018-09-10T13:55:35.618Z,42.20
2018-09-10T13:58:07.240Z,42.30
2018-09-10T14:00:44.516Z,42.60
2018-09-10T14:05:59.021Z,43.10
2018-09-10T14:08:28.145Z,42.90
2018-09-10T14:10:58.010Z,42.80
2018-09-10T14:13:32.822Z,42.50
2018-09-10T14:16:03.406Z,41.50
2018-09-10T14:18:32.820Z,41.60
2018-09-10T14:21:05.325Z,41.70
2018-09-10T14:23:38.866Z,41.60
2018-09-10T14:26:07.954Z,41.50
2018-09-10T14:28:37.912Z,41.70
2018-09-10T14:31:06.543Z,41.90
2018-09-10T14:33:35.361Z,41.70
2018-09-10T14:36:03.438Z,41.50
2018-09-10T14:38:32.131Z,40.00
2018-09-10T14:41:02.266Z,40.70
2018-09-10T14:43:38.090Z,40.50
2018-09-10T14:46:06.638Z,41.10
2018-09-10T14:48:40.141Z,39.50
2018-09-10T14:51:07.863Z,40.10
2018-09-10T14:53:36.371Z,39.90
2018-09-10T14:56:10.808Z,39.60
2018-09-10T14:58:43.925Z,39.50
2018-09-10T15:01:16.535Z,39.20
2018-09-10T15:03:47.128Z,39.00
2018-09-10T15:06:15.343Z,39.00
2018-09-10T15:08:56.702Z,38.90
2018-09-10T15:11:29.629Z,39.10
2018-09-10T15:14:00.008Z,39.00
2018-09-10T15:16:29.584Z,39.00
2018-09-10T15:19:04.428Z,38.80
2018-09-10T15:21:32.840Z,38.70
2018-09-10T15:24:03.775Z,38.80
2018-09-10T15:26:33.391Z,39.20
2018-09-10T15:29:03.003Z,39.20
2018-09-10T15:31:36.575Z,39.60
2018-09-10T15:34:10.736Z,39.80
2018-09-10T15:36:45.619Z,39.80
2018-09-10T15:39:28.706Z,40.10
2018-09-10T15:41:58.947Z,40.20
2018-09-10T15:44:34.219Z,40.30
2018-09-10T15:47:07.108Z,40.30
2018-09-10T15:49:36.531Z,40.10
2018-09-10T15:52:07.584Z,40.10
2018-09-10T15:54:39.683Z,40.00
2018-09-10T15:57:08.566Z,39.90
2018-09-10T15:59:38.999Z,40.10
2018-09-10T16:02:08.741Z,40.00
2018-09-10T16:04:39.632Z,40.20
2018-09-10T16:07:08.298Z,40.30
2018-09-10T16:09:43.123Z,40.60
2018-09-10T16:12:18.220Z,40.70
2018-09-10T16:14:46.970Z,41.10
2018-09-10T16:17:24.090Z,41.40
2018-09-10T16:22:48.202Z,41.50
2018-09-10T16:25:20.573Z,41.70
2018-09-10T16:27:52.999Z,41.60
2018-09-10T16:30:25.058Z,41.30
2018-09-10T16:32:59.168Z,41.50
2018-09-10T16:35:27.031Z,41.50
2018-09-10T16:37:59.595Z,41.70
2018-09-10T16:40:33.003Z,41.60
2018-09-10T16:43:01.673Z,41.40
2018-09-10T16:45:33.793Z,41.50
2018-09-10T16:48:02.387Z,41.60
2018-09-10T16:50:31.657Z,41.80
2018-09-10T16:53:01.389Z,41.90
2018-09-10T16:58:10.798Z,42.20
2018-09-10T17:00:39.822Z,42.80
2018-09-10T17:03:10.891Z,42.10
2018-09-10T17:05:39.081Z,42.10
2018-09-10T17:08:06.736Z,42.00
2018-09-10T17:10:39.527Z,42.30
2018-09-10T17:13:08.185Z,42.30
2018-09-10T17:15:37.407Z,42.50
2018-09-10T17:18:07.520Z,42.50
2018-09-10T17:20:36.177Z,42.60
2018-09-10T17:23:06.215Z,42.50
2018-09-10T17:25:35.819Z,42.60
2018-09-10T17:28:06.855Z,42.80
2018-09-10T17:30:45.417Z,42.90
2018-09-10T17:33:15.816Z,43.10
2018-09-10T17:35:46.912Z,43.20
2018-09-10T17:38:15.526Z,43.40
2018-09-10T17:40:45.956Z,43.50
2018-09-10T17:43:15.878Z,43.70
2018-09-10T17:45:44.276Z,43.90
2018-09-10T17:48:13.376Z,44.20
2018-09-10T17:50:42.259Z,44.70
2018-09-10T17:53:11.355Z,45.10
2018-09-10T17:55:40.455Z,45.20
2018-09-10T17:58:09.615Z,45.40
2018-09-10T18:00:45.680Z,45.40
2018-09-10T18:03:21.871Z,45.10
2018-09-10T18:05:57.096Z,45.00
2018-09-10T18:08:25.215Z,45.10
2018-09-10T18:10:53.778Z,45.10
2018-09-10T18:13:22.103Z,45.60
2018-09-10T18:15:52.836Z,46.00
2018-09-10T18:18:20.550Z,46.10
2018-09-10T18:20:50.098Z,46.40
2018-09-10T18:23:18.003Z,46.50
2018-09-10T18:25:46.685Z,46.80
2018-09-10T18:28:21.309Z,46.90
2018-09-10T18:30:51.643Z,47.10
2018-09-10T18:33:25.669Z,47.20
2018-09-10T18:35:58.638Z,47.50
2018-09-10T18:38:31.030Z,47.80
2018-09-10T18:40:59.543Z,47.80
2018-09-10T18:43:29.643Z,48.20
2018-09-10T18:46:03.565Z,48.20
2018-09-10T18:48:33.061Z,48.40
2018-09-10T18:51:04.723Z,48.30
2018-09-10T18:53:34.673Z,48.40
2018-09-10T18:56:11.943Z,48.40
2018-09-10T18:58:41.442Z,48.40
2018-09-10T19:01:20.213Z,48.50
2018-09-10T19:03:49.800Z,48.40
2018-09-10T19:06:18.794Z,48.70
2018-09-10T19:08:48.348Z,48.80
2018-09-10T19:11:21.004Z,49.20
2018-09-10T19:14:00.437Z,49.20
2018-09-10T19:16:33.626Z,49.40
2018-09-10T19:19:07.131Z,49.70
2018-09-10T19:21:37.247Z,49.90
2018-09-10T19:24:06.824Z,50.00
2018-09-10T19:26:39.301Z,50.10
2018-09-10T19:29:08.976Z,50.30
2018-09-10T19:31:37.634Z,50.40
2018-09-10T19:34:09.137Z,50.40
2018-09-10T19:36:40.244Z,50.40
2018-09-10T19:39:13.697Z,50.70
2018-09-10T19:41:49.808Z,51.00
2018-09-10T19:44:20.597Z,51.20
2018-09-10T19:46:54.479Z,51.30
2018-09-10T19:49:31.003Z,51.50
2018-09-10T19:52:00.529Z,51.40
2018-09-10T19:54:30.646Z,51.30
2018-09-10T19:57:05.321Z,51.60
2018-09-10T19:59:36.725Z,51.50
2018-09-10T20:02:05.767Z,51.70
2018-09-10T20:04:34.075Z,51.80
2018-09-10T20:07:05.846Z,52.00
2018-09-10T20:09:40.931Z,52.10
2018-09-10T20:12:09.171Z,52.40
2018-09-10T20:14:39.900Z,52.50
2018-09-10T20:17:08.756Z,52.80
2018-09-10T20:19:41.973Z,52.80
2018-09-10T20:22:17.791Z,53.20
2018-09-10T20:24:46.612Z,53.30
2018-09-10T20:27:19.519Z,53.60
2018-09-10T20:29:50.282Z,54.00
2018-09-10T20:32:23.431Z,54.20
2018-09-10T20:34:51.072Z,54.20
2018-09-10T20:37:18.654Z,54.40
2018-09-10T20:39:46.282Z,54.70
2018-09-10T20:42:41.161Z,55.00
2018-09-10T20:45:08.655Z,55.20
2018-09-10T20:47:36.756Z,55.40
2018-09-10T20:50:04.369Z,55.70
2018-09-10T20:52:32.977Z,55.90
2018-09-10T20:55:00.558Z,56.00
2018-09-10T20:57:28.724Z,56.10
2018-09-10T20:59:56.235Z,56.20
2018-09-10T21:02:24.526Z,56.30
2018-09-10T21:04:52.894Z,56.30
2018-09-10T21:07:21.135Z,56.60
2018-09-10T21:09:48.747Z,56.80
2018-09-10T21:12:16.299Z,56.90
2018-09-10T21:14:43.747Z,57.20
2018-09-10T21:17:11.939Z,57.10
2018-09-10T21:19:40.090Z,57.10
2018-09-10T21:22:07.722Z,57.40
2018-09-10T21:24:35.267Z,57.50
2018-09-10T21:27:02.693Z,57.60
2018-09-10T21:29:30.192Z,57.60
2018-09-10T21:31:57.949Z,57.60
2018-09-10T21:34:25.677Z,57.80
2018-09-10T21:36:53.354Z,58.00
2018-09-10T21:39:21.705Z,58.00
2018-09-10T21:41:50.290Z,58.20
2018-09-10T21:44:19.218Z,58.20
2018-09-10T21:46:47.687Z,58.30
2018-09-10T21:49:15.218Z,58.30
2018-09-10T21:51:42.912Z,58.30
2018-09-10T21:54:10.496Z,58.30
2018-09-10T21:56:37.992Z,58.30
2018-09-10T21:59:05.569Z,58.40
2018-09-10T22:01:33.066Z,58.60
2018-09-10T22:04:00.591Z,58.70
2018-09-10T22:06:28.169Z,58.80
2018-09-10T22:08:55.624Z,58.80
2018-09-10T22:11:23.263Z,58.80
2018-09-10T22:13:50.742Z,59.00
2018-09-10T22:16:18.385Z,59.00
2018-09-10T22:18:46.151Z,59.10
2018-09-10T22:21:13.699Z,59.20
2018-09-10T22:23:41.260Z,59.30
2018-09-10T22:26:08.782Z,59.50
2018-09-10T22:28:36.335Z,59.70
2018-09-10T22:31:03.871Z,59.80
2018-09-10T22:33:31.351Z,59.90
2018-09-10T22:35:58.897Z,59.90
2018-09-10T22:38:26.630Z,60.20
2018-09-10T22:40:54.106Z,60.50
2018-09-10T22:43:21.585Z,60.50
2018-09-10T22:45:49.262Z,60.70
2018-09-10T22:48:16.804Z,60.90
2018-09-10T22:50:44.331Z,60.90
2018-09-10T22:53:11.791Z,60.80
2018-09-10T22:55:39.336Z,60.70
2018-09-10T22:58:06.831Z,60.60
2018-09-10T23:00:34.329Z,60.80
2018-09-10T23:03:01.867Z,60.90
2018-09-10T23:05:29.377Z,61.40
2018-09-10T23:07:57.655Z,61.20
2018-09-10T23:10:25.150Z,61.20
2018-09-10T23:12:52.630Z,61.60
2018-09-10T23:15:20.287Z,61.60
2018-09-10T23:17:47.759Z,61.50
2018-09-10T23:20:15.207Z,61.60
2018-09-10T23:22:42.687Z,61.60
2018-09-10T23:25:10.563Z,61.60
2018-09-10T23:27:38.119Z,61.60
2018-09-10T23:30:06.046Z,61.60
2018-09-10T23:32:33.769Z,61.70
2018-09-10T23:35:01.230Z,61.70
2018-09-10T23:37:28.751Z,61.60
2018-09-10T23:39:56.248Z,61.80
2018-09-10T23:42:23.763Z,62.00
2018-09-10T23:44:51.231Z,61.80
2018-09-10T23:47:18.670Z,62.00
2018-09-10T23:49:46.334Z,62.20
2018-09-10T23:52:13.831Z,62.50
2018-09-10T23:54:41.362Z,62.50
2018-09-10T23:57:08.910Z,62.70
2018-09-10T23:59:36.400Z,63.00
